Brooklyn, Michigan
Current Conditions -  °F | °C
As of 6:56 PM on Thursday 18 Dec 2014 (Local Time) from KJXN Reporting Station
Haze Haze  
Wind Chill: 22°   Ceiling: 800
Heat Index: 29°   Visibility: 6mi
Dew Point: 26°   Wind: 7mph
Humidity: 89%   Direction: 290°WNW
Pressure: 30.18"   Gusts: NA
Location:  42.11°N, 84.25°W
Report Text: KJXN 182356Z 29006KT 6SM BR BKN008 OVC013 M02/M03 A3018 RMK AO2 CIG 006V010 SLP231 I1000 I6000 T10171033 10000 21017 53006
Loading
Personal Weather Stations






























Interactive Weather Map New forecast layout! Learn more

10-Day Weather Forecast

Advertisements
Track Severe Weather on mobile